Time;durP1;ratioP1;P1;durP2;ratioP2;P2;SDS_P1;SDS_P2;PMS_P1;PMS_P2;Temp;Humidity;BMP_temperature;BMP_pressure;BME280_temperature;BME280_humidity;BME280_pressure;Samples;Min_cycle;Max_cycle;Signal;HPM_P1;HPM_P2
2023/03/24 00:01:29;;;;;;;6.27;4.13;;;;;;;;;;5000045;28;20271;-66
2023/03/24 00:03:54;;;;;;;5.60;4.20;;;;;;;;;;5035628;28;20370;-66
2023/03/24 00:06:21;;;;;;;6.00;4.40;;;;;;;;;;5000310;28;20055;-66
2023/03/24 00:08:47;;;;;;;5.03;4.13;;;;;;;;;;5015213;28;20275;-67
2023/03/24 00:11:13;;;;;;;5.10;3.97;;;;;;;;;;5004130;28;20148;-66
2023/03/24 00:13:39;;;;;;;5.07;4.10;;;;;;;;;;5034781;28;20061;-66
2023/03/24 00:16:05;;;;;;;4.85;4.05;;;;;;;;;;5016197;28;20048;-69
2023/03/24 00:18:31;;;;;;;5.47;3.97;;;;;;;;;;5032808;28;20674;-67
2023/03/24 00:20:57;;;;;;;6.35;4.22;;;;;;;;;;5016417;28;20029;-68
2023/03/24 00:23:22;;;;;;;6.63;4.38;;;;;;;;;;5015197;28;20040;-66
2023/03/24 00:25:48;;;;;;;5.28;4.07;;;;;;;;;;5015680;28;20044;-68
2023/03/24 00:28:13;;;;;;;4.97;3.78;;;;;;;;;;5015503;28;20037;-66
2023/03/24 00:30:39;;;;;;;5.32;4.20;;;;;;;;;;5004703;28;20048;-68
2023/03/24 00:33:05;;;;;;;5.38;4.10;;;;;;;;;;5027476;28;20426;-69
2023/03/24 00:35:31;;;;;;;5.22;4.10;;;;;;;;;;5025350;28;20048;-68
2023/03/24 00:37:57;;;;;;;4.95;4.13;;;;;;;;;;5032188;28;20045;-69
2023/03/24 00:40:22;;;;;;;4.80;3.85;;;;;;;;;;5015212;28;20077;-67
2023/03/24 00:42:48;;;;;;;4.88;4.18;;;;;;;;;;5033120;28;20387;-67
2023/03/24 00:45:15;;;;;;;6.00;4.18;;;;;;;;;;5033454;28;20128;-66
2023/03/24 00:47:40;;;;;;;5.78;4.53;;;;;;;;;;4998938;28;20116;-67
2023/03/24 00:50:07;;;;;;;4.97;4.00;;;;;;;;;;4998894;28;20136;-67
2023/03/24 00:52:35;;;;;;;6.03;4.20;;;;;;;;;;5011583;28;20025;-64
2023/03/24 00:55:01;;;;;;;5.75;4.30;;;;;;;;;;5032711;28;20041;-68
2023/03/24 00:57:28;;;;;;;5.45;4.15;;;;;;;;;;5033078;28;20053;-64
2023/03/24 00:59:54;;;;;;;5.40;4.00;;;;;;;;;;5016306;28;20036;-66
2023/03/24 01:02:23;;;;;;;5.40;4.30;;;;;;;;;;5015311;28;20036;-67
2023/03/24 01:04:58;;;;;;;5.20;3.83;;;;;;;;;;5032349;28;20509;-68
2023/03/24 01:07:24;;;;;;;5.68;4.10;;;;;;;;;;5020456;28;20044;-63
2023/03/24 01:09:56;;;;;;;4.93;4.30;;;;;;;;;;5033068;28;20102;-68
2023/03/24 01:12:30;;;;;;;4.65;3.70;;;;;;;;;;5033892;28;20532;-66
2023/03/24 01:14:59;;;;;;;4.22;3.60;;;;;;;;;;5015215;28;20171;-67
2023/03/24 01:17:24;;;;;;;4.80;4.03;;;;;;;;;;5033630;28;20154;-66
2023/03/24 01:19:53;;;;;;;6.03;4.28;;;;;;;;;;5015474;28;20525;-67
2023/03/24 01:22:19;;;;;;;5.57;3.97;;;;;;;;;;5004664;28;20499;-65
2023/03/24 01:24:45;;;;;;;4.75;3.85;;;;;;;;;;5000019;28;20030;-66
2023/03/24 01:27:10;;;;;;;4.30;3.90;;;;;;;;;;5017039;28;20098;-65
2023/03/24 01:29:36;;;;;;;5.57;4.23;;;;;;;;;;5020349;28;20036;-68
2023/03/24 01:32:01;;;;;;;5.03;3.90;;;;;;;;;;5024427;28;20368;-70
2023/03/24 01:34:26;;;;;;;5.97;4.20;;;;;;;;;;4999172;28;20365;-68
2023/03/24 01:36:51;;;;;;;4.88;3.85;;;;;;;;;;5026807;28;20041;-67
2023/03/24 01:39:17;;;;;;;6.00;4.53;;;;;;;;;;5018727;28;20542;-67
2023/03/24 01:41:42;;;;;;;5.10;3.88;;;;;;;;;;4998699;28;20288;-68
2023/03/24 01:44:24;;;;;;;5.20;3.97;;;;;;;;;;4991666;28;20045;-66
2023/03/24 01:46:50;;;;;;;5.75;4.35;;;;;;;;;;5002574;28;20073;-69
2023/03/24 01:49:15;;;;;;;6.18;4.60;;;;;;;;;;4997086;28;20537;-68
2023/03/24 01:51:44;;;;;;;5.43;4.00;;;;;;;;;;5017994;28;20037;-68
2023/03/24 01:54:17;;;;;;;5.32;3.95;;;;;;;;;;4997857;28;20707;-69
2023/03/24 01:56:44;;;;;;;5.03;3.97;;;;;;;;;;4995917;28;20053;-68
2023/03/24 01:59:11;;;;;;;4.57;3.97;;;;;;;;;;4996845;28;20053;-68
2023/03/24 02:01:37;;;;;;;5.53;4.10;;;;;;;;;;5011509;28;20259;-69
2023/03/24 02:04:03;;;;;;;5.18;4.22;;;;;;;;;;5010801;28;20644;-68
2023/03/24 02:06:28;;;;;;;4.85;4.10;;;;;;;;;;4998846;28;20772;-71
2023/03/24 02:08:54;;;;;;;5.60;4.30;;;;;;;;;;4992839;28;20109;-66
2023/03/24 02:11:20;;;;;;;5.40;4.40;;;;;;;;;;5028060;28;20537;-68
2023/03/24 02:13:45;;;;;;;5.63;3.97;;;;;;;;;;4961281;28;20041;-66
2023/03/24 02:16:11;;;;;;;5.90;4.17;;;;;;;;;;5019912;28;20025;-68
2023/03/24 02:18:43;;;;;;;4.63;3.80;;;;;;;;;;5017694;28;20331;-67
2023/03/24 02:21:11;;;;;;;5.18;4.00;;;;;;;;;;5019542;28;20036;-68
2023/03/24 02:23:57;;;;;;;5.45;4.07;;;;;;;;;;5029045;28;20030;-68
2023/03/24 02:26:29;;;;;;;5.75;4.20;;;;;;;;;;5011087;28;20080;-68
2023/03/24 02:29:02;;;;;;;4.82;4.00;;;;;;;;;;5026051;28;20040;-67
2023/03/24 02:31:42;;;;;;;4.93;4.30;;;;;;;;;;5019100;28;20071;-69
2023/03/24 02:34:08;;;;;;;5.25;4.10;;;;;;;;;;5010873;28;20365;-67
2023/03/24 02:36:48;;;;;;;5.17;4.20;;;;;;;;;;5026507;28;20117;-69
2023/03/24 02:39:15;;;;;;;4.60;3.85;;;;;;;;;;5021469;28;20056;-68
2023/03/24 02:41:46;;;;;;;4.20;3.53;;;;;;;;;;5018640;28;20037;-68
2023/03/24 02:44:30;;;;;;;4.78;3.88;;;;;;;;;;5018324;28;20087;-69
2023/03/24 02:46:59;;;;;;;6.03;4.60;;;;;;;;;;5027319;28;20037;-68
2023/03/24 02:49:40;;;;;;;6.50;4.57;;;;;;;;;;5010143;28;20056;-68
2023/03/24 02:52:15;;;;;;;5.15;3.85;;;;;;;;;;4981984;28;20056;-64
2023/03/24 02:54:41;;;;;;;5.40;4.13;;;;;;;;;;4991204;28;20045;-65
2023/03/24 02:57:20;;;;;;;5.70;4.20;;;;;;;;;;4992314;28;20549;-65
2023/03/24 02:59:56;;;;;;;4.82;4.00;;;;;;;;;;4997053;28;20295;-67
2023/03/24 03:02:47;;;;;;;5.35;4.05;;;;;;;;;;5011762;28;20370;-66
2023/03/24 03:05:15;;;;;;;5.00;4.05;;;;;;;;;;4988952;28;20972;-67
2023/03/24 03:07:41;;;;;;;5.15;4.13;;;;;;;;;;5013123;28;20048;-67
2023/03/24 03:10:36;;;;;;;5.72;4.50;;;;;;;;;;4990813;28;20033;-67
2023/03/24 03:13:01;;;;;;;4.82;4.07;;;;;;;;;;4980470;28;20570;-68
2023/03/24 03:15:28;;;;;;;5.28;4.13;;;;;;;;;;5008736;28;20108;-67
2023/03/24 03:18:15;;;;;;;5.10;4.10;;;;;;;;;;4978696;28;20049;-67
2023/03/24 03:20:49;;;;;;;4.88;3.88;;;;;;;;;;5008990;28;20080;-67
2023/03/24 03:23:15;;;;;;;5.15;4.05;;;;;;;;;;4987546;28;20498;-65
2023/03/24 03:25:45;;;;;;;5.60;4.15;;;;;;;;;;4994652;28;20033;-64
2023/03/24 03:28:10;;;;;;;4.90;3.80;;;;;;;;;;5013318;28;20480;-68
2023/03/24 03:30:55;;;;;;;4.97;4.15;;;;;;;;;;4981283;28;20065;-65
2023/03/24 03:33:24;;;;;;;4.93;3.95;;;;;;;;;;4991928;28;20045;-66
2023/03/24 03:35:55;;;;;;;4.70;3.92;;;;;;;;;;5011928;28;20041;-66
2023/03/24 03:38:22;;;;;;;5.28;4.18;;;;;;;;;;4994711;28;20041;-66
2023/03/24 03:40:47;;;;;;;4.60;3.85;;;;;;;;;;5011901;28;20026;-68
2023/03/24 03:43:12;;;;;;;5.22;3.97;;;;;;;;;;5011322;28;20025;-63
2023/03/24 03:45:37;;;;;;;4.35;3.95;;;;;;;;;;4988508;28;20033;-69
2023/03/24 03:48:03;;;;;;;5.32;4.25;;;;;;;;;;4993886;28;20932;-68
2023/03/24 03:50:28;;;;;;;6.30;4.07;;;;;;;;;;5010949;28;20053;-65
2023/03/24 03:52:53;;;;;;;4.60;3.73;;;;;;;;;;4990508;28;20018;-67
2023/03/24 03:55:19;;;;;;;4.70;3.50;;;;;;;;;;4989405;28;21341;-68
2023/03/24 03:57:44;;;;;;;5.00;4.20;;;;;;;;;;5006995;28;20125;-66
2023/03/24 04:00:14;;;;;;;5.00;4.18;;;;;;;;;;5005367;28;20870;-67
2023/03/24 04:02:42;;;;;;;5.97;3.85;;;;;;;;;;5009070;28;20116;-67
2023/03/24 04:05:18;;;;;;;5.57;4.53;;;;;;;;;;5009931;28;20076;-68
2023/03/24 04:07:46;;;;;;;5.70;4.25;;;;;;;;;;4974760;28;20061;-66
2023/03/24 04:10:35;;;;;;;4.38;3.63;;;;;;;;;;5013370;28;20033;-67
2023/03/24 04:13:18;;;;;;;5.63;4.40;;;;;;;;;;5011345;28;20041;-64
2023/03/24 04:15:47;;;;;;;4.40;3.75;;;;;;;;;;4990828;28;20049;-66
2023/03/24 04:18:21;;;;;;;4.95;4.10;;;;;;;;;;5009948;28;20513;-67
2023/03/24 04:21:05;;;;;;;5.50;4.50;;;;;;;;;;4961522;28;20085;-67
2023/03/24 04:23:43;;;;;;;5.32;4.40;;;;;;;;;;5012399;28;20037;-68
2023/03/24 04:26:09;;;;;;;5.00;4.30;;;;;;;;;;5012108;28;20049;-68
2023/03/24 04:28:40;;;;;;;4.65;4.13;;;;;;;;;;5012663;28;20051;-67
2023/03/24 04:31:17;;;;;;;5.15;3.88;;;;;;;;;;5012379;28;20048;-64
2023/03/24 04:33:50;;;;;;;5.22;4.43;;;;;;;;;;4972947;28;20033;-67
2023/03/24 04:36:18;;;;;;;4.97;3.97;;;;;;;;;;4987976;28;20544;-66
2023/03/24 04:38:45;;;;;;;5.03;4.18;;;;;;;;;;4993224;28;20068;-66
2023/03/24 04:41:10;;;;;;;5.75;4.10;;;;;;;;;;4995543;28;20036;-69
2023/03/24 04:43:37;;;;;;;5.67;4.40;;;;;;;;;;4994598;28;20488;-65
2023/03/24 04:46:03;;;;;;;5.93;4.03;;;;;;;;;;5009199;28;21002;-66
2023/03/24 04:48:28;;;;;;;4.90;3.80;;;;;;;;;;4994062;28;20150;-67
2023/03/24 04:50:56;;;;;;;5.20;4.22;;;;;;;;;;4988012;28;20069;-67
2023/03/24 04:53:21;;;;;;;5.30;4.22;;;;;;;;;;4993981;28;20121;-66
2023/03/24 04:55:49;;;;;;;6.78;4.50;;;;;;;;;;4992786;28;20109;-69
2023/03/24 04:58:15;;;;;;;5.30;4.25;;;;;;;;;;4991176;28;20045;-68
2023/03/24 05:00:43;;;;;;;5.32;4.45;;;;;;;;;;4992441;28;20033;-66
2023/03/24 05:03:08;;;;;;;5.13;3.90;;;;;;;;;;4992164;28;20025;-67
2023/03/24 05:05:33;;;;;;;5.63;4.53;;;;;;;;;;4978944;28;20096;-67
2023/03/24 05:07:59;;;;;;;5.87;4.27;;;;;;;;;;5013858;28;21560;-70
2023/03/24 05:10:24;;;;;;;5.30;4.37;;;;;;;;;;5014303;28;20267;-69
2023/03/24 05:12:49;;;;;;;4.60;3.97;;;;;;;;;;4980760;28;21102;-67
2023/03/24 05:15:14;;;;;;;6.37;4.50;;;;;;;;;;5012448;28;20375;-67
2023/03/24 05:17:40;;;;;;;5.43;4.35;;;;;;;;;;4978449;28;20847;-68
2023/03/24 05:20:09;;;;;;;6.35;4.57;;;;;;;;;;4992849;28;20026;-67
2023/03/24 05:22:35;;;;;;;5.30;4.30;;;;;;;;;;4993050;28;20037;-65
2023/03/24 05:25:00;;;;;;;5.07;3.97;;;;;;;;;;5012351;28;20049;-67
2023/03/24 05:27:25;;;;;;;5.45;4.07;;;;;;;;;;4994721;28;20029;-65
2023/03/24 05:29:51;;;;;;;5.20;4.18;;;;;;;;;;5002098;28;20033;-63
2023/03/24 05:32:16;;;;;;;5.10;4.20;;;;;;;;;;4995842;28;20038;-65
2023/03/24 05:34:41;;;;;;;4.83;3.90;;;;;;;;;;5013025;28;20279;-65
2023/03/24 05:37:10;;;;;;;5.05;4.22;;;;;;;;;;4993147;28;21195;-66
2023/03/24 05:39:36;;;;;;;5.23;3.77;;;;;;;;;;4975651;28;20489;-66
2023/03/24 05:42:01;;;;;;;5.23;4.10;;;;;;;;;;4998958;28;20037;-66
2023/03/24 05:44:26;;;;;;;4.97;4.20;;;;;;;;;;4987126;28;20858;-65
2023/03/24 05:46:51;;;;;;;4.90;3.90;;;;;;;;;;4955933;28;20288;-66
2023/03/24 05:49:17;;;;;;;5.30;4.10;;;;;;;;;;4974689;28;20502;-66
2023/03/24 05:51:42;;;;;;;4.97;3.88;;;;;;;;;;4989832;28;20324;-69
2023/03/24 05:54:07;;;;;;;4.83;3.97;;;;;;;;;;4991915;28;20664;-71
2023/03/24 05:56:32;;;;;;;5.20;4.00;;;;;;;;;;4992088;28;20615;-65
2023/03/24 05:58:58;;;;;;;4.90;3.70;;;;;;;;;;4993605;28;21147;-64
2023/03/24 06:01:24;;;;;;;5.70;4.05;;;;;;;;;;4993248;28;20045;-69
2023/03/24 06:03:49;;;;;;;4.70;3.72;;;;;;;;;;4997878;28;20297;-65
2023/03/24 06:06:15;;;;;;;4.75;3.90;;;;;;;;;;4990916;28;20038;-65
2023/03/24 06:08:43;;;;;;;4.95;3.65;;;;;;;;;;4992789;28;20108;-66
2023/03/24 06:11:09;;;;;;;5.13;3.97;;;;;;;;;;4990161;28;20048;-69
2023/03/24 06:13:35;;;;;;;4.55;3.67;;;;;;;;;;4996723;28;20038;-65
2023/03/24 06:16:00;;;;;;;5.00;3.97;;;;;;;;;;4994227;28;20048;-68
2023/03/24 06:18:25;;;;;;;5.57;4.10;;;;;;;;;;4996999;28;20050;-67
2023/03/24 06:20:55;;;;;;;4.57;3.70;;;;;;;;;;4998345;28;20205;-68
2023/03/24 06:23:22;;;;;;;5.22;3.90;;;;;;;;;;5001500;28;21654;-69
2023/03/24 06:25:49;;;;;;;4.25;3.55;;;;;;;;;;4994277;28;20147;-67
2023/03/24 06:28:14;;;;;;;5.07;3.83;;;;;;;;;;4984133;28;20041;-62
2023/03/24 06:30:42;;;;;;;5.82;3.63;;;;;;;;;;4955479;28;20112;-64
2023/03/24 06:33:08;;;;;;;4.55;3.80;;;;;;;;;;4985579;28;20037;-62
2023/03/24 06:35:34;;;;;;;6.20;3.83;;;;;;;;;;5012795;28;20037;-65
2023/03/24 06:38:00;;;;;;;4.40;3.40;;;;;;;;;;5010910;28;20049;-68
2023/03/24 06:40:25;;;;;;;4.85;3.42;;;;;;;;;;5017055;28;20093;-66
2023/03/24 06:42:50;;;;;;;4.72;4.03;;;;;;;;;;5014589;28;20719;-67
2023/03/24 06:45:16;;;;;;;4.60;3.67;;;;;;;;;;4999870;28;20088;-64
2023/03/24 06:47:41;;;;;;;5.17;4.03;;;;;;;;;;5004780;28;20175;-68
2023/03/24 06:50:06;;;;;;;6.10;3.83;;;;;;;;;;4989030;28;20299;-65
2023/03/24 06:52:32;;;;;;;4.70;3.50;;;;;;;;;;5018799;28;20712;-64
2023/03/24 06:54:57;;;;;;;5.68;4.18;;;;;;;;;;5018527;28;20033;-68
2023/03/24 06:57:23;;;;;;;4.53;3.80;;;;;;;;;;5034965;28;20648;-65
2023/03/24 06:59:48;;;;;;;4.57;3.60;;;;;;;;;;5033780;28;20064;-67
2023/03/24 07:02:13;;;;;;;4.80;3.63;;;;;;;;;;5035968;28;20524;-68
2023/03/24 07:04:38;;;;;;;4.50;3.73;;;;;;;;;;5022472;28;20398;-65
2023/03/24 07:07:04;;;;;;;4.50;3.70;;;;;;;;;;5003860;28;20790;-67
2023/03/24 07:09:29;;;;;;;4.95;3.83;;;;;;;;;;5004316;28;20429;-69
2023/03/24 07:11:54;;;;;;;5.40;3.83;;;;;;;;;;5019694;28;20105;-67
2023/03/24 07:14:20;;;;;;;4.38;3.80;;;;;;;;;;5016792;28;20900;-64
2023/03/24 07:16:46;;;;;;;4.63;3.50;;;;;;;;;;4976647;28;20034;-64
2023/03/24 07:19:11;;;;;;;4.82;3.80;;;;;;;;;;4995732;28;20060;-67
2023/03/24 07:21:36;;;;;;;4.90;4.07;;;;;;;;;;4989221;28;20424;-68
2023/03/24 07:24:02;;;;;;;4.95;3.80;;;;;;;;;;4987788;28;20088;-66
2023/03/24 07:26:27;;;;;;;5.07;4.07;;;;;;;;;;5015420;28;20758;-67
2023/03/24 07:28:52;;;;;;;5.10;3.75;;;;;;;;;;4979707;28;20116;-67
2023/03/24 07:31:18;;;;;;;5.13;3.80;;;;;;;;;;4977316;28;20159;-64
2023/03/24 07:33:43;;;;;;;4.83;3.50;;;;;;;;;;4985702;28;20696;-63
2023/03/24 07:36:08;;;;;;;5.38;4.05;;;;;;;;;;5012334;28;20295;-65
2023/03/24 07:38:33;;;;;;;5.47;3.80;;;;;;;;;;5010319;28;20112;-66
2023/03/24 07:40:59;;;;;;;5.85;4.10;;;;;;;;;;5012308;28;20037;-64
2023/03/24 07:43:24;;;;;;;4.28;3.53;;;;;;;;;;5012811;28;20034;-67
2023/03/24 07:45:50;;;;;;;5.40;3.90;;;;;;;;;;5013878;28;20624;-67
2023/03/24 07:48:15;;;;;;;4.55;3.80;;;;;;;;;;5010458;28;20107;-64
2023/03/24 07:50:40;;;;;;;4.50;3.70;;;;;;;;;;4981047;28;20044;-66
2023/03/24 07:53:08;;;;;;;5.07;3.90;;;;;;;;;;4967115;28;20621;-64
2023/03/24 07:55:35;;;;;;;4.90;3.90;;;;;;;;;;4972752;28;20132;-63
2023/03/24 07:58:00;;;;;;;4.72;4.05;;;;;;;;;;4994688;28;20108;-65
2023/03/24 08:00:27;;;;;;;5.20;4.03;;;;;;;;;;4959246;28;20575;-63
2023/03/24 08:02:53;;;;;;;5.45;4.10;;;;;;;;;;4978363;28;20286;-64
2023/03/24 08:05:19;;;;;;;5.10;4.10;;;;;;;;;;4971789;28;20372;-62
2023/03/24 08:07:49;;;;;;;6.25;4.15;;;;;;;;;;4973949;28;20499;-65
2023/03/24 08:10:14;;;;;;;;;;;;;;;;;;4974074;28;20032;-63
2023/03/24 08:12:39;;;;;;;5.50;4.23;;;;;;;;;;4987104;28;19917;-64
2023/03/24 08:15:06;;;;;;;5.30;3.90;;;;;;;;;;4970255;28;20037;-67
2023/03/24 08:17:32;;;;;;;5.05;3.92;;;;;;;;;;4972081;28;20042;-65
2023/03/24 08:19:57;;;;;;;6.88;4.18;;;;;;;;;;4972878;28;22157;-67
2023/03/24 08:22:23;;;;;;;5.43;4.15;;;;;;;;;;4975236;28;20518;-65
2023/03/24 08:24:48;;;;;;;5.60;4.05;;;;;;;;;;4962669;28;20030;-65
2023/03/24 08:27:15;;;;;;;4.97;3.93;;;;;;;;;;4972732;28;20076;-67
2023/03/24 08:29:41;;;;;;;4.90;3.80;;;;;;;;;;4988859;28;20041;-68
2023/03/24 08:32:06;;;;;;;4.93;4.18;;;;;;;;;;4988349;28;20033;-64
2023/03/24 08:34:31;;;;;;;4.63;3.60;;;;;;;;;;4979116;28;20558;-68
2023/03/24 08:36:57;;;;;;;5.47;4.00;;;;;;;;;;4998592;28;20041;-66
2023/03/24 08:39:24;;;;;;;5.50;4.07;;;;;;;;;;4994165;28;20319;-67
2023/03/24 08:41:49;;;;;;;4.97;4.05;;;;;;;;;;4973287;28;20522;-64
2023/03/24 08:44:14;;;;;;;4.77;3.70;;;;;;;;;;4992149;28;20040;-67
2023/03/24 08:46:40;;;;;;;5.05;3.90;;;;;;;;;;4991753;28;20280;-65
2023/03/24 08:49:05;;;;;;;5.23;3.70;;;;;;;;;;4998132;28;20179;-66
2023/03/24 08:51:31;;;;;;;4.40;3.80;;;;;;;;;;5007579;28;20330;-64
2023/03/24 08:53:56;;;;;;;4.78;3.60;;;;;;;;;;5013960;28;20372;-64
2023/03/24 08:56:21;;;;;;;4.65;3.55;;;;;;;;;;4990702;28;20026;-67
2023/03/24 08:58:52;;;;;;;4.55;3.60;;;;;;;;;;4998264;28;20176;-65
2023/03/24 09:01:18;;;;;;;4.00;3.53;;;;;;;;;;4993466;28;20433;-66
2023/03/24 09:03:43;;;;;;;4.78;4.18;;;;;;;;;;4970448;28;20038;-65
2023/03/24 09:06:09;;;;;;;5.40;4.05;;;;;;;;;;4991793;28;20422;-65
2023/03/24 09:08:34;;;;;;;4.75;3.45;;;;;;;;;;4954467;28;20058;-66
2023/03/24 09:11:00;;;;;;;4.88;3.30;;;;;;;;;;4978940;28;20046;-65
2023/03/24 09:13:25;;;;;;;4.43;3.87;;;;;;;;;;4992579;28;20617;-65
2023/03/24 09:15:51;;;;;;;5.53;3.70;;;;;;;;;;4991536;28;20310;-65
2023/03/24 09:18:17;;;;;;;5.18;3.58;;;;;;;;;;4980457;28;20962;-64
2023/03/24 09:20:43;;;;;;;4.53;3.53;;;;;;;;;;4964361;28;20132;-65
2023/03/24 09:23:08;;;;;;;5.32;3.90;;;;;;;;;;4972367;28;20039;-64
2023/03/24 09:25:33;;;;;;;4.45;3.53;;;;;;;;;;4966799;28;20088;-66
2023/03/24 09:27:59;;;;;;;5.82;4.03;;;;;;;;;;4968526;28;20033;-64
2023/03/24 09:30:24;;;;;;;4.78;3.53;;;;;;;;;;4979973;28;20050;-65
2023/03/24 09:32:50;;;;;;;4.90;3.83;;;;;;;;;;4990742;28;20503;-64
2023/03/24 09:35:15;;;;;;;3.63;3.20;;;;;;;;;;4970335;28;20304;-63
2023/03/24 09:37:42;;;;;;;4.85;3.53;;;;;;;;;;4987056;28;20061;-69
2023/03/24 09:40:07;;;;;;;5.22;3.67;;;;;;;;;;4991035;28;20037;-63
2023/03/24 09:42:34;;;;;;;4.63;3.67;;;;;;;;;;4993993;28;20152;-66
2023/03/24 09:45:01;;;;;;;4.45;3.63;;;;;;;;;;4988453;28;20045;-67
2023/03/24 09:47:37;;;;;;;4.50;3.60;;;;;;;;;;4981168;28;20545;-66
2023/03/24 09:50:06;;;;;;;4.70;3.70;;;;;;;;;;4977920;28;20066;-64
2023/03/24 09:52:35;;;;;;;4.72;3.60;;;;;;;;;;5007802;28;20069;-64
2023/03/24 09:55:03;;;;;;;4.45;3.58;;;;;;;;;;4972468;28;20057;-66
2023/03/24 09:57:35;;;;;;;5.40;3.58;;;;;;;;;;4967545;28;20043;-65
2023/03/24 10:00:01;;;;;;;6.97;3.63;;;;;;;;;;4988752;28;20080;-64
2023/03/24 10:02:27;;;;;;;4.20;3.33;;;;;;;;;;4972759;28;20566;-65
2023/03/24 10:04:52;;;;;;;5.57;3.90;;;;;;;;;;4954693;28;20053;-64
2023/03/24 10:07:21;;;;;;;4.32;3.60;;;;;;;;;;4963080;28;20038;-65
2023/03/24 10:10:08;;;;;;;4.25;3.35;;;;;;;;;;4961000;28;20439;-64
2023/03/24 10:12:33;;;;;;;6.50;3.70;;;;;;;;;;4955237;28;20069;-62
2023/03/24 10:15:01;;;;;;;4.33;3.43;;;;;;;;;;4971534;28;20181;-63
2023/03/24 10:17:39;;;;;;;4.38;3.60;;;;;;;;;;4974780;28;20537;-63
2023/03/24 10:20:17;;;;;;;4.68;3.40;;;;;;;;;;4992401;28;20864;-64
2023/03/24 10:22:54;;;;;;;4.72;3.53;;;;;;;;;;4991088;28;20146;-64
2023/03/24 10:25:20;;;;;;;4.35;3.50;;;;;;;;;;4966839;28;20061;-65
2023/03/24 10:27:51;;;;;;;4.97;3.65;;;;;;;;;;4950746;28;20030;-65
2023/03/24 10:30:18;;;;;;;4.55;3.45;;;;;;;;;;4970680;28;20049;-62
2023/03/24 10:32:43;;;;;;;4.65;3.63;;;;;;;;;;4958248;28;20045;-64
2023/03/24 10:35:14;;;;;;;4.70;3.55;;;;;;;;;;4968786;28;20334;-63
2023/03/24 10:37:39;;;;;;;4.57;3.60;;;;;;;;;;4995361;28;20038;-66
2023/03/24 10:40:15;;;;;;;4.57;3.10;;;;;;;;;;4990189;28;20884;-65
2023/03/24 10:42:40;;;;;;;4.47;3.78;;;;;;;;;;4981268;28;20383;-67
2023/03/24 10:45:10;;;;;;;3.88;3.45;;;;;;;;;;4987271;28;21130;-61
2023/03/24 10:47:36;;;;;;;5.20;3.45;;;;;;;;;;4973662;28;20132;-65
2023/03/24 10:50:04;;;;;;;5.45;3.33;;;;;;;;;;4996050;28;21474;-66
2023/03/24 10:52:37;;;;;;;4.43;3.42;;;;;;;;;;4992042;28;20138;-63
2023/03/24 10:55:03;;;;;;;5.25;3.33;;;;;;;;;;5012567;28;20065;-65
2023/03/24 10:57:28;;;;;;;5.70;3.30;;;;;;;;;;4984847;28;20112;-63
2023/03/24 10:59:55;;;;;;;4.90;3.20;;;;;;;;;;5010414;28;20051;-65
2023/03/24 11:02:22;;;;;;;4.53;3.30;;;;;;;;;;4991045;28;20314;-65
2023/03/24 11:05:08;;;;;;;4.50;3.08;;;;;;;;;;4990457;28;20040;-66
2023/03/24 11:07:43;;;;;;;4.20;3.50;;;;;;;;;;4985733;28;20041;-66
2023/03/24 11:10:09;;;;;;;4.07;3.20;;;;;;;;;;4993255;28;20051;-65
2023/03/24 11:12:38;;;;;;;5.10;3.40;;;;;;;;;;5013710;28;20429;-65
2023/03/24 11:15:18;;;;;;;4.13;3.30;;;;;;;;;;4985886;28;20037;-64
2023/03/24 11:17:47;;;;;;;3.78;3.10;;;;;;;;;;5010486;28;20049;-64
2023/03/24 11:20:16;;;;;;;3.78;3.30;;;;;;;;;;4993438;28;20029;-63
2023/03/24 11:22:44;;;;;;;4.22;3.28;;;;;;;;;;5009403;28;20037;-65
2023/03/24 11:25:10;;;;;;;5.03;3.50;;;;;;;;;;4990728;28;20049;-65
2023/03/24 11:27:40;;;;;;;3.88;3.20;;;;;;;;;;4990057;28;20119;-66
2023/03/24 11:30:10;;;;;;;4.82;3.40;;;;;;;;;;4981499;28;20057;-64
2023/03/24 11:32:36;;;;;;;4.57;3.25;;;;;;;;;;4988409;28;20698;-64
2023/03/24 11:35:02;;;;;;;4.20;3.40;;;;;;;;;;4992029;28;20042;-63
2023/03/24 11:37:28;;;;;;;4.43;3.33;;;;;;;;;;4990133;28;20292;-64
2023/03/24 11:40:13;;;;;;;4.50;3.40;;;;;;;;;;4987951;28;20053;-62
2023/03/24 11:42:42;;;;;;;5.45;3.42;;;;;;;;;;4988640;28;20034;-65
2023/03/24 11:45:26;;;;;;;3.92;3.42;;;;;;;;;;4992280;28;20051;-64
2023/03/24 11:47:52;;;;;;;3.88;3.10;;;;;;;;;;4999223;28;21187;-65
2023/03/24 11:50:29;;;;;;;4.05;3.20;;;;;;;;;;4972174;28;20057;-63
2023/03/24 11:53:06;;;;;;;4.18;3.00;;;;;;;;;;4998010;28;20037;-64
2023/03/24 11:55:32;;;;;;;4.10;3.35;;;;;;;;;;4968810;28;20040;-64
2023/03/24 11:58:16;;;;;;;3.70;3.22;;;;;;;;;;5000567;28;20787;-64
2023/03/24 12:00:54;;;;;;;3.63;2.97;;;;;;;;;;5003368;28;20526;-67
2023/03/24 12:03:38;;;;;;;4.07;3.00;;;;;;;;;;4981523;28;20045;-62
2023/03/24 12:06:16;;;;;;;4.35;3.50;;;;;;;;;;5007945;28;20137;-66
2023/03/24 12:08:50;;;;;;;4.57;3.20;;;;;;;;;;5006868;28;20573;-67
2023/03/24 12:11:19;;;;;;;3.60;2.78;;;;;;;;;;5009630;28;20044;-64
2023/03/24 12:13:48;;;;;;;4.18;3.10;;;;;;;;;;4991100;28;20511;-66
2023/03/24 12:16:20;;;;;;;3.35;2.78;;;;;;;;;;5008942;28;20132;-64
2023/03/24 12:18:46;;;;;;;4.28;3.28;;;;;;;;;;4990533;28;20067;-62
2023/03/24 12:21:15;;;;;;;4.53;3.17;;;;;;;;;;5009206;28;20041;-64
2023/03/24 12:23:49;;;;;;;3.60;2.60;;;;;;;;;;4999448;28;20336;-65
2023/03/24 12:26:18;;;;;;;3.92;3.15;;;;;;;;;;5010238;28;20048;-63
2023/03/24 12:28:50;;;;;;;4.18;2.88;;;;;;;;;;5008632;28;20026;-64
2023/03/24 12:31:34;;;;;;;4.25;3.17;;;;;;;;;;5017568;28;20353;-64
2023/03/24 12:34:07;;;;;;;4.00;3.10;;;;;;;;;;5015952;28;20041;-67
2023/03/24 12:36:39;;;;;;;4.05;3.15;;;;;;;;;;4995916;28;20428;-67
2023/03/24 12:39:09;;;;;;;4.63;3.45;;;;;;;;;;4978697;28;20271;-64
2023/03/24 12:41:34;;;;;;;;;;;;;;;;;;4983773;28;20057;-64
2023/03/24 12:44:13;;;;;;;3.33;2.87;;;;;;;;;;5013542;28;20385;-64
2023/03/24 12:46:41;;;;;;;4.40;3.30;;;;;;;;;;5018005;28;20103;-63
2023/03/24 12:49:06;;;;;;;3.33;2.90;;;;;;;;;;5001902;28;20695;-64
2023/03/24 12:51:35;;;;;;;4.33;3.03;;;;;;;;;;4992008;28;20076;-65
2023/03/24 12:54:11;;;;;;;4.10;3.40;;;;;;;;;;4989785;28;20304;-62
2023/03/24 12:56:39;;;;;;;3.58;3.17;;;;;;;;;;4979585;28;20689;-62
2023/03/24 12:59:28;;;;;;;3.80;2.80;;;;;;;;;;4956762;28;20132;-62
2023/03/24 13:02:12;;;;;;;3.80;3.17;;;;;;;;;;4983008;28;20473;-63
2023/03/24 13:04:40;;;;;;;3.83;2.78;;;;;;;;;;4987524;28;21446;-66
2023/03/24 13:07:10;;;;;;;4.38;3.28;;;;;;;;;;4977663;28;20072;-61
2023/03/24 13:09:39;;;;;;;3.67;3.20;;;;;;;;;;4973479;28;20116;-64
2023/03/24 13:12:09;;;;;;;4.37;3.20;;;;;;;;;;4990164;28;20105;-67
2023/03/24 13:14:46;;;;;;;3.95;3.03;;;;;;;;;;4973268;28;21941;-66
2023/03/24 13:17:17;;;;;;;3.83;3.15;;;;;;;;;;4977773;28;20128;-64
2023/03/24 13:19:42;;;;;;;3.38;2.88;;;;;;;;;;4980977;28;20837;-67
2023/03/24 13:22:10;;;;;;;3.57;2.83;;;;;;;;;;4970371;28;20136;-63
2023/03/24 13:24:35;;;;;;;4.00;2.95;;;;;;;;;;4984332;28;20331;-65
2023/03/24 13:27:05;;;;;;;3.47;2.80;;;;;;;;;;4993579;28;20123;-63
2023/03/24 13:29:40;;;;;;;3.58;2.97;;;;;;;;;;4992499;28;20049;-63
2023/03/24 13:32:23;;;;;;;4.43;3.22;;;;;;;;;;4993980;28;20077;-65
2023/03/24 13:35:08;;;;;;;3.40;2.88;;;;;;;;;;5012247;28;20115;-65
2023/03/24 13:37:38;;;;;;;3.28;2.78;;;;;;;;;;4993288;28;20604;-65
2023/03/24 13:40:14;;;;;;;3.35;2.97;;;;;;;;;;4969854;28;20065;-65
2023/03/24 13:42:44;;;;;;;3.53;3.20;;;;;;;;;;4989125;28;20045;-65
2023/03/24 13:45:24;;;;;;;3.35;3.00;;;;;;;;;;4993808;28;20025;-62
2023/03/24 13:48:03;;;;;;;3.40;2.78;;;;;;;;;;4981664;28;20065;-64
2023/03/24 13:50:30;;;;;;;3.70;2.93;;;;;;;;;;5011125;28;20148;-66
2023/03/24 13:52:55;;;;;;;3.78;2.92;;;;;;;;;;4978363;28;20067;-62
2023/03/24 13:55:21;;;;;;;4.37;3.13;;;;;;;;;;4988454;28;20054;-68
2023/03/24 13:57:52;;;;;;;3.55;2.90;;;;;;;;;;4974641;28;20391;-66
2023/03/24 14:00:21;;;;;;;3.10;2.60;;;;;;;;;;4980462;28;20049;-65
2023/03/24 14:02:48;;;;;;;3.45;2.88;;;;;;;;;;4970699;28;20579;-67
2023/03/24 14:05:25;;;;;;;3.65;2.90;;;;;;;;;;4992232;28;20044;-65
2023/03/24 14:08:11;;;;;;;3.10;2.63;;;;;;;;;;4991125;28;20034;-64
2023/03/24 14:10:40;;;;;;;3.92;3.03;;;;;;;;;;4982041;28;20124;-66
2023/03/24 14:13:11;;;;;;;3.30;2.72;;;;;;;;;;4989427;28;20099;-64
2023/03/24 14:15:40;;;;;;;3.50;3.00;;;;;;;;;;4997147;28;20037;-66
2023/03/24 14:18:14;;;;;;;2.97;2.63;;;;;;;;;;5012468;28;20052;-65
2023/03/24 14:20:44;;;;;;;3.65;2.75;;;;;;;;;;5014889;28;20048;-67
2023/03/24 14:23:18;;;;;;;3.67;3.00;;;;;;;;;;5010806;28;20045;-66
2023/03/24 14:25:44;;;;;;;4.15;2.90;;;;;;;;;;4977002;28;20454;-63
2023/03/24 14:28:15;;;;;;;3.43;2.60;;;;;;;;;;4995814;28;20029;-63
2023/03/24 14:30:53;;;;;;;2.97;2.35;;;;;;;;;;5013523;28;20308;-63
2023/03/24 14:33:23;;;;;;;3.45;2.70;;;;;;;;;;4965042;28;20041;-65
2023/03/24 14:35:50;;;;;;;3.03;2.42;;;;;;;;;;4958032;28;20449;-63
2023/03/24 14:38:19;;;;;;;4.13;2.58;;;;;;;;;;4995547;28;20034;-63
2023/03/24 14:40:45;;;;;;;3.55;2.70;;;;;;;;;;4997070;28;20089;-67
2023/03/24 14:43:22;;;;;;;3.60;2.50;;;;;;;;;;4977456;28;20140;-65
2023/03/24 14:45:52;;;;;;;2.83;2.20;;;;;;;;;;4997160;28;20038;-63
2023/03/24 14:48:33;;;;;;;4.22;2.45;;;;;;;;;;4984462;28;20068;-63
2023/03/24 14:51:14;;;;;;;2.83;2.20;;;;;;;;;;5011082;28;20450;-66
2023/03/24 14:53:39;;;;;;;3.88;2.70;;;;;;;;;;4998133;28;20056;-64